Time;durP1;ratioP1;P1;durP2;ratioP2;P2;SDS_P1;SDS_P2;PMS_P1;PMS_P2;Temp;Humidity;BMP_temperature;BMP_pressure;BME280_temperature;BME280_humidity;BME280_pressure;Samples;Min_cycle;Max_cycle;Signal;HPM_P1;HPM_P2
2022/07/19 00:00:09;;;;;;;3.83;1.45;;;20.60;67.90;;;;;;6223171;28;20393;-79
2022/07/19 00:03:10;;;;;;;1.77;0.90;;;20.60;68.00;;;;;;6224666;28;20057;-77
2022/07/19 00:06:12;;;;;;;1.73;1.00;;;20.50;68.30;;;;;;6235763;28;20046;-78
2022/07/19 00:09:14;;;;;;;4.03;1.45;;;20.50;69.10;;;;;;6231476;28;20057;-78
2022/07/19 00:12:16;;;;;;;3.10;1.15;;;20.40;68.90;;;;;;6229865;28;20527;-79
2022/07/19 00:15:19;;;;;;;5.97;1.40;;;20.30;68.90;;;;;;6228348;28;20128;-79
2022/07/19 00:18:20;;;;;;;2.67;1.38;;;20.30;69.10;;;;;;6197307;28;20061;-78
2022/07/19 00:21:22;;;;;;;6.15;1.50;;;20.20;69.50;;;;;;6198870;28;20050;-78
2022/07/19 00:24:24;;;;;;;4.68;1.33;;;20.20;70.20;;;;;;6195682;28;20057;-83
2022/07/19 00:27:26;;;;;;;2.88;1.17;;;20.20;70.50;;;;;;6198627;28;20508;-80
2022/07/19 00:30:29;;;;;;;4.88;1.20;;;20.20;70.60;;;;;;6202584;28;20046;-78
2022/07/19 00:33:31;;;;;;;3.15;1.13;;;20.20;71.00;;;;;;6200442;28;20496;-80
2022/07/19 00:36:32;;;;;;;5.57;1.10;;;20.10;72.10;;;;;;6203390;28;20436;-78
2022/07/19 00:39:34;;;;;;;3.13;1.63;;;20.10;71.80;;;;;;6203608;28;20050;-77
2022/07/19 00:42:38;;;;;;;2.03;1.00;;;20.00;72.10;;;;;;6204399;28;20050;-76
2022/07/19 00:45:41;;;;;;;3.53;1.13;;;19.90;72.30;;;;;;6204134;28;20047;-77
2022/07/19 00:48:43;;;;;;;3.05;1.15;;;19.90;72.60;;;;;;6204550;28;20048;-80
2022/07/19 00:51:46;;;;;;;11.60;2.42;;;19.80;72.90;;;;;;6208156;28;20050;-77
2022/07/19 00:54:50;;;;;;;6.82;1.67;;;19.80;73.20;;;;;;6207470;28;20114;-78
2022/07/19 00:57:52;;;;;;;6.38;1.48;;;19.70;73.30;;;;;;6208568;28;20058;-77
2022/07/19 01:00:55;;;;;;;2.67;0.98;;;19.70;73.50;;;;;;6206714;28;20053;-78
2022/07/19 01:03:57;;;;;;;5.10;1.35;;;19.70;73.90;;;;;;6206079;28;20039;-77
2022/07/19 01:06:59;;;;;;;6.93;1.17;;;19.70;74.00;;;;;;6206654;28;20046;-76
2022/07/19 01:10:01;;;;;;;3.53;1.70;;;19.60;74.50;;;;;;6207184;28;20050;-77
2022/07/19 01:13:03;;;;;;;6.88;1.10;;;19.50;74.60;;;;;;6206459;28;20049;-77
2022/07/19 01:16:06;;;;;;;4.55;0.93;;;19.50;75.50;;;;;;6205258;28;20667;-76
2022/07/19 01:19:08;;;;;;;6.10;1.50;;;19.50;75.20;;;;;;6213698;28;20041;-78
2022/07/19 01:22:11;;;;;;;4.47;1.63;;;19.30;75.50;;;;;;6229764;28;20050;-77
2022/07/19 01:25:14;;;;;;;2.92;1.50;;;19.30;76.00;;;;;;6192412;28;20050;-77
2022/07/19 01:28:15;;;;;;;4.50;1.73;;;19.30;76.60;;;;;;6180958;28;20058;-77
2022/07/19 01:31:17;;;;;;;4.22;1.75;;;19.10;76.90;;;;;;6159028;28;20043;-77
2022/07/19 01:34:19;;;;;;;5.55;1.80;;;19.10;77.40;;;;;;6181402;28;20047;-80
2022/07/19 01:37:22;;;;;;;3.10;1.25;;;19.00;77.70;;;;;;6180715;28;20133;-79
2022/07/19 01:40:25;;;;;;;3.85;1.60;;;18.90;78.40;;;;;;6181223;28;20054;-76
2022/07/19 01:43:26;;;;;;;3.97;1.70;;;18.80;78.80;;;;;;6180347;28;20053;-77
2022/07/19 01:46:28;;;;;;;2.75;1.55;;;18.70;79.50;;;;;;6180635;28;20058;-77
2022/07/19 01:49:30;;;;;;;3.00;1.40;;;18.60;79.60;;;;;;6180958;28;20065;-77
2022/07/19 01:52:33;;;;;;;2.90;1.30;;;18.50;80.10;;;;;;6180328;28;20057;-78
2022/07/19 01:55:35;;;;;;;4.07;1.60;;;18.50;80.90;;;;;;6180892;28;20069;-80
2022/07/19 01:58:36;;;;;;;2.95;1.27;;;18.50;81.10;;;;;;6180556;28;20178;-77
2022/07/19 02:01:38;;;;;;;2.80;1.60;;;18.50;81.70;;;;;;6179554;28;20058;-77
2022/07/19 02:04:40;;;;;;;3.58;1.40;;;18.40;81.80;;;;;;6178421;28;20512;-78
2022/07/19 02:07:43;;;;;;;4.70;1.90;;;18.40;82.00;;;;;;6178687;28;20050;-78
2022/07/19 02:10:45;;;;;;;4.20;1.48;;;18.40;82.20;;;;;;6177219;28;20394;-78
2022/07/19 02:13:46;;;;;;;3.05;1.27;;;18.20;82.40;;;;;;6178648;28;20059;-79
2022/07/19 02:16:48;;;;;;;4.90;1.58;;;18.30;82.20;;;;;;6177304;28;20047;-77
2022/07/19 02:19:50;;;;;;;3.22;1.90;;;18.30;82.40;;;;;;6176804;28;20053;-78
2022/07/19 02:22:53;;;;;;;2.97;1.17;;;18.30;82.40;;;;;;6177828;28;20046;-77
2022/07/19 02:25:55;;;;;;;6.03;1.73;;;18.30;82.40;;;;;;6177455;28;20066;-78
2022/07/19 02:28:57;;;;;;;2.75;1.55;;;18.20;82.90;;;;;;6177577;28;20057;-78
2022/07/19 02:31:58;;;;;;;3.78;1.60;;;18.20;83.30;;;;;;6177990;28;20049;-76
2022/07/19 02:35:00;;;;;;;4.20;3.08;;;18.10;83.50;;;;;;6178142;28;20050;-78
2022/07/19 02:38:03;;;;;;;2.70;1.65;;;18.10;83.70;;;;;;6177865;28;20439;-78
2022/07/19 02:41:05;;;;;;;2.22;1.38;;;18.10;83.70;;;;;;6178351;28;20596;-76
2022/07/19 02:44:07;;;;;;;3.28;1.50;;;18.10;83.70;;;;;;6179115;28;20057;-76
2022/07/19 02:47:09;;;;;;;3.22;1.42;;;18.10;83.30;;;;;;6179217;28;20043;-77
2022/07/19 02:50:11;;;;;;;3.38;1.20;;;18.10;83.40;;;;;;6178387;28;20057;-77
2022/07/19 02:53:14;;;;;;;3.05;1.60;;;18.20;83.60;;;;;;6177757;28;20045;-77
2022/07/19 02:56:16;;;;;;;5.15;1.45;;;18.10;83.50;;;;;;6178470;28;20058;-77
2022/07/19 02:59:17;;;;;;;5.47;1.58;;;18.10;83.30;;;;;;6178896;28;20053;-77
2022/07/19 03:02:19;;;;;;;4.60;1.50;;;18.10;83.30;;;;;;6178731;28;20051;-78
2022/07/19 03:05:21;;;;;;;4.13;1.38;;;18.10;83.60;;;;;;6179008;28;20061;-79
2022/07/19 03:08:24;;;;;;;3.13;1.60;;;18.10;83.80;;;;;;6180160;28;20539;-77
2022/07/19 03:11:26;;;;;;;4.30;1.17;;;18.10;83.80;;;;;;6177092;28;20051;-77
2022/07/19 03:14:28;;;;;;;4.55;1.50;;;18.10;84.20;;;;;;6176546;28;20055;-77
2022/07/19 03:17:30;;;;;;;2.15;1.30;;;18.00;83.90;;;;;;6177566;28;20050;-76
2022/07/19 03:20:32;;;;;;;3.50;1.80;;;18.00;84.40;;;;;;6214383;28;20053;-78
2022/07/19 03:23:37;;;;;;;2.75;1.63;;;18.00;84.60;;;;;;6226441;28;20046;-78
2022/07/19 03:26:38;;;;;;;20.75;2.40;;;18.10;84.70;;;;;;6227311;28;20046;-77
2022/07/19 03:29:40;;;;;;;3.03;1.50;;;18.10;84.90;;;;;;6226322;28;20050;-77
2022/07/19 03:32:42;;;;;;;3.97;1.83;;;18.10;84.80;;;;;;6224654;28;20045;-77
2022/07/19 03:35:44;;;;;;;7.03;1.85;;;18.10;84.90;;;;;;6225577;28;20045;-77
2022/07/19 03:38:47;;;;;;;3.33;1.75;;;18.10;84.80;;;;;;6224504;28;20414;-76
2022/07/19 03:41:49;;;;;;;5.60;1.88;;;18.10;84.40;;;;;;6224343;28;20046;-78
2022/07/19 03:44:51;;;;;;;10.50;1.65;;;18.10;84.20;;;;;;6222347;28;20056;-78
2022/07/19 03:47:53;;;;;;;4.47;1.70;;;18.10;84.50;;;;;;6222713;28;20527;-77
2022/07/19 03:50:54;;;;;;;10.02;2.13;;;18.00;85.00;;;;;;6223215;28;20046;-77
2022/07/19 03:53:57;;;;;;;9.75;4.68;;;18.00;85.50;;;;;;6223733;28;20064;-78
2022/07/19 03:56:59;;;;;;;3.85;2.63;;;18.10;85.40;;;;;;6222617;28;20397;-76
2022/07/19 04:00:01;;;;;;;5.22;2.00;;;18.10;85.20;;;;;;6222352;28;20060;-77
2022/07/19 04:03:03;;;;;;;5.70;1.65;;;18.10;85.60;;;;;;6222413;28;20042;-76
2022/07/19 04:06:05;;;;;;;3.33;1.45;;;18.30;85.80;;;;;;6222557;28;20655;-76
2022/07/19 04:09:08;;;;;;;3.20;1.70;;;18.50;85.10;;;;;;6222336;28;20065;-77
2022/07/19 04:12:10;;;;;;;4.43;1.58;;;18.60;84.70;;;;;;6222190;28;20038;-76
2022/07/19 04:15:12;;;;;;;4.00;1.45;;;18.70;83.90;;;;;;6244737;22;20024;-80
2022/07/19 04:18:14;;;;;;;9.73;1.85;;;18.80;83.50;;;;;;6204325;28;20060;-78
2022/07/19 04:21:15;;;;;;;2.53;1.50;;;18.90;83.20;;;;;;6214152;28;20060;-80
2022/07/19 04:24:18;;;;;;;3.50;1.70;;;18.90;82.50;;;;;;6227969;28;20049;-78
2022/07/19 04:27:20;;;;;;;3.42;2.08;;;19.00;82.30;;;;;;6228024;28;20056;-79
2022/07/19 04:30:22;;;;;;;3.15;1.40;;;19.00;82.20;;;;;;6227786;28;20050;-80
2022/07/19 04:33:24;;;;;;;3.95;1.70;;;19.10;81.90;;;;;;6227916;28;20042;-78
2022/07/19 04:36:26;;;;;;;4.18;1.88;;;19.20;82.50;;;;;;6227088;28;20100;-79
2022/07/19 04:39:29;;;;;;;4.65;1.55;;;19.40;81.40;;;;;;6227621;28;20046;-79
2022/07/19 04:42:30;;;;;;;11.65;2.13;;;19.50;80.80;;;;;;6227331;28;20056;-77
2022/07/19 04:45:32;;;;;;;104.60;10.77;;;19.60;80.30;;;;;;6228652;28;20080;-80
2022/07/19 04:48:34;;;;;;;24.25;3.35;;;20.10;79.50;;;;;;6228325;28;20046;-79
2022/07/19 04:51:36;;;;;;;40.22;3.90;;;21.30;76.20;;;;;;6227859;28;20057;-77
2022/07/19 04:54:39;;;;;;;25.10;3.25;;;23.00;70.30;;;;;;6228174;28;20096;-80
2022/07/19 04:57:40;;;;;;;15.05;3.08;;;24.60;64.00;;;;;;6227940;28;20411;-77
2022/07/19 05:00:42;;;;;;;18.92;3.40;;;26.10;59.30;;;;;;6229006;28;20046;-80
2022/07/19 05:03:44;;;;;;;13.85;2.67;;;27.30;55.40;;;;;;6230223;28;20062;-79
2022/07/19 05:06:46;;;;;;;17.73;3.92;;;28.30;52.20;;;;;;6229449;28;20046;-79
2022/07/19 05:09:49;;;;;;;21.00;2.85;;;28.70;50.30;;;;;;6230330;28;20060;-80
2022/07/19 05:12:50;;;;;;;13.63;1.65;;;28.50;50.20;;;;;;6229720;28;20038;-80
2022/07/19 05:15:52;;;;;;;3.70;1.48;;;29.30;49.00;;;;;;6228819;28;20105;-79
2022/07/19 05:18:54;;;;;;;4.68;1.52;;;30.60;46.50;;;;;;6229218;28;20042;-81
2022/07/19 05:21:55;;;;;;;6.57;1.83;;;31.90;43.90;;;;;;6224936;28;20050;-79
2022/07/19 05:24:59;;;;;;;6.18;2.17;;;33.10;42.00;;;;;;6230488;28;20050;-80
2022/07/19 05:28:01;;;;;;;11.55;2.17;;;34.10;39.90;;;;;;6227227;28;20053;-80
2022/07/19 05:31:04;;;;;;;10.70;1.63;;;35.20;38.60;;;;;;6227529;28;20042;-79
2022/07/19 05:34:05;;;;;;;8.27;2.30;;;35.50;37.40;;;;;;6227080;28;20537;-79
2022/07/19 05:37:07;;;;;;;6.57;1.50;;;34.60;38.10;;;;;;6230481;28;20046;-81
2022/07/19 05:40:11;;;;;;;8.32;2.10;;;33.40;38.90;;;;;;6231586;28;20452;-79
2022/07/19 05:43:13;;;;;;;16.33;2.72;;;32.40;40.40;;;;;;6234202;28;20056;-81
2022/07/19 05:46:15;;;;;;;10.23;2.42;;;31.90;41.40;;;;;;6233353;28;20188;-81
2022/07/19 05:49:16;;;;;;;2.45;1.73;;;31.70;41.80;;;;;;6233653;28;20539;-78
2022/07/19 05:52:18;;;;;;;5.45;1.90;;;31.60;41.70;;;;;;6231958;28;20387;-80
2022/07/19 05:55:21;;;;;;;9.60;1.55;;;31.60;41.90;;;;;;6231243;28;20046;-80
2022/07/19 05:58:24;;;;;;;20.60;3.38;;;31.60;41.20;;;;;;6230294;28;20046;-80
2022/07/19 06:01:26;;;;;;;2.92;1.63;;;31.80;40.90;;;;;;6231558;28;20061;-80
2022/07/19 06:04:27;;;;;;;3.60;1.05;;;31.90;40.30;;;;;;6231016;28;20046;-79
2022/07/19 06:07:29;;;;;;;5.68;1.38;;;32.00;39.80;;;;;;6232033;28;20617;-81
2022/07/19 06:10:32;;;;;;;5.97;1.35;;;32.00;39.60;;;;;;6232208;28;20113;-80
2022/07/19 06:13:34;;;;;;;2.35;1.02;;;32.10;39.50;;;;;;6234373;28;20542;-81
2022/07/19 06:16:38;;;;;;;7.30;0.93;;;32.30;39.40;;;;;;6231341;28;20054;-81
2022/07/19 06:19:39;;;;;;;4.72;1.42;;;32.40;39.10;;;;;;6233794;28;20046;-80
2022/07/19 06:22:41;;;;;;;5.47;1.30;;;32.10;39.20;;;;;;6225638;28;20125;-79
2022/07/19 06:25:45;;;;;;;5.10;1.38;;;31.50;40.00;;;;;;6209225;28;20050;-81
2022/07/19 06:28:47;;;;;;;2.35;1.20;;;31.00;40.70;;;;;;6208265;28;20081;-79
2022/07/19 06:31:49;;;;;;;8.05;0.95;;;30.60;41.20;;;;;;6208468;28;20050;-79
2022/07/19 06:34:50;;;;;;;4.53;1.30;;;30.50;41.60;;;;;;6208359;28;20104;-80
2022/07/19 06:37:52;;;;;;;8.38;1.25;;;30.50;41.70;;;;;;6208221;28;20134;-80
2022/07/19 06:40:55;;;;;;;11.50;1.30;;;30.40;41.80;;;;;;6202994;28;20076;-80
2022/07/19 06:43:57;;;;;;;3.03;1.40;;;30.40;41.70;;;;;;6206530;28;20051;-79
2022/07/19 06:46:59;;;;;;;9.48;1.30;;;30.40;41.90;;;;;;6205513;28;20049;-79
2022/07/19 06:50:00;;;;;;;4.45;1.20;;;30.50;41.60;;;;;;6207226;28;20058;-80
2022/07/19 06:53:02;;;;;;;11.20;1.48;;;30.60;41.20;;;;;;6208571;28;20048;-79
2022/07/19 06:56:06;;;;;;;2.30;1.00;;;30.70;41.00;;;;;;6213691;28;20072;-82
2022/07/19 06:59:08;;;;;;;5.22;0.88;;;30.90;40.80;;;;;;6209297;28;20046;-80
2022/07/19 07:02:10;;;;;;;8.82;1.25;;;31.00;40.30;;;;;;6207148;28;20051;-79
2022/07/19 07:05:12;;;;;;;2.15;0.70;;;31.20;40.10;;;;;;6201629;28;20053;-80
2022/07/19 07:08:14;;;;;;;4.13;1.35;;;31.50;39.70;;;;;;6203376;28;20420;-79
2022/07/19 07:11:17;;;;;;;2.33;1.00;;;31.70;39.20;;;;;;6204499;28;20101;-79
2022/07/19 07:14:19;;;;;;;4.22;0.95;;;31.80;39.10;;;;;;6204293;28;20047;-80
2022/07/19 07:17:21;;;;;;;4.65;1.08;;;31.90;38.90;;;;;;6204219;28;20054;-81
2022/07/19 07:20:22;;;;;;;10.60;1.50;;;32.10;38.60;;;;;;6204548;28;20060;-80
2022/07/19 07:23:24;;;;;;;4.22;0.93;;;32.20;38.10;;;;;;6208166;28;20081;-81
2022/07/19 07:26:28;;;;;;;2.88;0.75;;;32.20;38.00;;;;;;6228219;28;20073;-80
2022/07/19 07:29:29;;;;;;;8.52;1.45;;;32.40;38.00;;;;;;6229912;28;20057;-80
2022/07/19 07:32:31;;;;;;;2.45;0.90;;;32.60;37.70;;;;;;6229680;28;20046;-80
2022/07/19 07:35:33;;;;;;;5.40;1.17;;;32.90;37.80;;;;;;6229838;28;20042;-79
2022/07/19 07:38:35;;;;;;;8.13;1.00;;;33.20;37.40;;;;;;6230608;28;20057;-80
2022/07/19 07:41:38;;;;;;;3.28;1.05;;;33.40;37.30;;;;;;6230532;28;20068;-80
2022/07/19 07:44:39;;;;;;;3.00;1.50;;;33.50;36.80;;;;;;6230199;28;20048;-80
2022/07/19 07:47:42;;;;;;;3.50;1.10;;;33.70;36.70;;;;;;6226441;28;20380;-77
2022/07/19 07:50:43;;;;;;;7.55;1.10;;;33.70;36.60;;;;;;6227178;28;20076;-79
2022/07/19 07:53:45;;;;;;;15.88;1.35;;;33.90;36.60;;;;;;6227781;28;20042;-78
2022/07/19 07:56:48;;;;;;;3.38;1.33;;;34.00;36.20;;;;;;6226900;28;20060;-80
2022/07/19 07:59:50;;;;;;;7.57;1.40;;;34.20;36.10;;;;;;6227444;28;20057;-78
2022/07/19 08:02:51;;;;;;;2.45;1.10;;;34.40;35.60;;;;;;6227401;28;20120;-79
2022/07/19 08:05:53;;;;;;;5.97;1.10;;;34.40;35.70;;;;;;6227157;28;20367;-78
2022/07/19 08:08:55;;;;;;;3.72;0.90;;;34.70;35.80;;;;;;6226725;28;20050;-77
2022/07/19 08:11:58;;;;;;;3.08;0.82;;;35.00;35.40;;;;;;6226917;28;20064;-80
2022/07/19 08:15:00;;;;;;;1.77;1.00;;;35.00;34.60;;;;;;6225210;28;20052;-78
2022/07/19 08:18:01;;;;;;;12.48;1.15;;;34.70;35.00;;;;;;6225689;28;20415;-77
2022/07/19 08:21:03;;;;;;;5.95;1.15;;;34.60;35.00;;;;;;6225593;28;20052;-79
2022/07/19 08:24:05;;;;;;;2.05;1.58;;;34.60;35.10;;;;;;6218254;28;20049;-80
2022/07/19 08:27:08;;;;;;;6.35;0.90;;;34.90;35.00;;;;;;6221726;28;20049;-80
2022/07/19 08:30:11;;;;;;;2.05;0.70;;;35.10;34.80;;;;;;6228023;28;20049;-78
2022/07/19 08:33:13;;;;;;;3.78;0.70;;;35.30;34.10;;;;;;6166023;28;20089;-79
2022/07/19 08:36:15;;;;;;;8.45;1.00;;;35.30;33.80;;;;;;6196441;28;20121;-79
2022/07/19 08:39:16;;;;;;;3.83;1.02;;;35.30;33.20;;;;;;6201464;28;20138;-78
2022/07/19 08:42:21;;;;;;;2.10;0.80;;;35.40;33.40;;;;;;6201725;28;20057;-79
2022/07/19 08:45:24;;;;;;;5.95;0.80;;;35.60;33.20;;;;;;6200926;28;20507;-76
2022/07/19 08:48:26;;;;;;;2.72;1.05;;;35.60;32.80;;;;;;6199232;28;20052;-78
2022/07/19 08:51:28;;;;;;;2.33;1.00;;;35.70;32.50;;;;;;6199697;28;20057;-77
2022/07/19 08:54:30;;;;;;;3.85;0.82;;;35.80;32.60;;;;;;6200363;28;20052;-80
2022/07/19 09:00:52;;;;;;;1.27;0.50;;;36.30;30.60;;;;;;6200310;28;20042;-77
2022/07/19 09:04:09;;;;;;;4.18;0.50;;;36.30;30.40;;;;;;6199692;28;20061;-79
2022/07/19 09:07:10;;;;;;;7.22;1.00;;;36.50;31.10;;;;;;6185886;28;20050;-79
2022/07/19 09:10:16;;;;;;;6.78;1.23;;;36.90;31.40;;;;;;6205357;28;20050;-78
2022/07/19 09:13:19;;;;;;;6.20;0.80;;;37.00;30.90;;;;;;6205159;28;20050;-78
2022/07/19 09:16:21;;;;;;;3.05;0.82;;;37.30;30.50;;;;;;6204240;28;20415;-78
2022/07/19 09:19:24;;;;;;;3.90;0.60;;;37.60;30.10;;;;;;6203873;28;20042;-79
2022/07/19 09:22:28;;;;;;;3.15;0.80;;;37.80;30.50;;;;;;6207033;28;20054;-79
2022/07/19 09:25:34;;;;;;;2.33;0.63;;;37.70;27.50;;;;;;6215947;28;20511;-77
2022/07/19 09:28:37;;;;;;;1.67;0.73;;;37.30;27.80;;;;;;6208339;28;20057;-78
2022/07/19 09:32:09;;;;;;;8.98;0.65;;;37.10;27.80;;;;;;6206406;28;20401;-77
2022/07/19 09:35:10;;;;;;;1.85;0.55;;;37.10;27.70;;;;;;6204540;28;20250;-77
2022/07/19 09:38:23;;;;;;;7.93;0.70;;;37.20;27.60;;;;;;6204116;28;20046;-78
2022/07/19 09:41:25;;;;;;;2.38;0.73;;;37.30;27.20;;;;;;6204040;28;20062;-78
2022/07/19 09:44:28;;;;;;;5.90;0.70;;;37.20;27.30;;;;;;6204230;28;20057;-78
2022/07/19 09:47:34;;;;;;;2.67;0.68;;;37.30;27.50;;;;;;6204140;28;20046;-77
2022/07/19 09:50:35;;;;;;;3.05;0.45;;;37.50;27.60;;;;;;6204474;28;20056;-78
2022/07/19 09:53:38;;;;;;;2.53;0.68;;;37.80;27.60;;;;;;6205335;28;20408;-78
2022/07/19 09:56:41;;;;;;;5.55;1.02;;;37.70;27.00;;;;;;6204391;28;20049;-79
2022/07/19 09:59:50;;;;;;;6.57;0.45;;;37.70;27.30;;;;;;6204894;28;20042;-80
2022/07/19 10:02:54;;;;;;;3.22;0.63;;;37.60;27.00;;;;;;6204196;28;20046;-78
2022/07/19 10:05:57;;;;;;;3.03;0.80;;;37.60;27.20;;;;;;6202146;28;20050;-78
2022/07/19 10:08:59;;;;;;;0.80;0.50;;;37.50;27.00;;;;;;6202652;28;20057;-80
2022/07/19 10:12:01;;;;;;;3.80;0.60;;;37.70;27.20;;;;;;6203665;28;20042;-78
2022/07/19 10:15:05;;;;;;;3.60;0.73;;;38.70;26.80;;;;;;6204438;28;20042;-78
2022/07/19 10:18:19;;;;;;;5.57;0.73;;;39.40;26.20;;;;;;6213278;28;20144;-81
2022/07/19 10:21:22;;;;;;;4.72;0.70;;;39.60;25.90;;;;;;6212586;28;20050;-78
2022/07/19 10:24:44;;;;;;;2.83;0.65;;;39.50;26.10;;;;;;6219447;28;20134;-76
2022/07/19 10:27:47;;;;;;;4.78;0.65;;;39.00;26.00;;;;;;6227716;28;20050;-80
2022/07/19 10:30:50;;;;;;;2.58;0.60;;;38.70;25.70;;;;;;6236791;28;20056;-81
2022/07/19 10:34:00;;;;;;;2.90;0.75;;;38.40;25.90;;;;;;6238437;28;20046;-79
2022/07/19 10:37:01;;;;;;;5.45;0.90;;;38.30;26.20;;;;;;6219242;28;20408;-81
2022/07/19 10:40:04;;;;;;;5.40;0.80;;;38.20;26.40;;;;;;6214566;28;20046;-79
2022/07/19 10:43:06;;;;;;;6.45;0.65;;;38.30;26.70;;;;;;6210838;28;20046;-80
2022/07/19 10:46:13;;;;;;;3.05;0.50;;;38.50;26.60;;;;;;6214027;28;20061;-79
2022/07/19 10:49:42;;;;;;;6.60;0.80;;;38.50;27.30;;;;;;6215083;28;20057;-81
2022/07/19 10:52:44;;;;;;;1.52;0.52;;;38.50;27.30;;;;;;6212028;28;20050;-80
2022/07/19 10:56:06;;;;;;;2.83;0.68;;;38.60;27.30;;;;;;6209962;28;20562;-80
2022/07/19 10:59:10;;;;;;;5.60;0.75;;;38.80;26.50;;;;;;6210129;28;20060;-80
2022/07/19 11:02:25;;;;;;;4.88;0.70;;;39.10;26.50;;;;;;6218885;28;20073;-80
2022/07/19 11:05:29;;;;;;;3.22;0.88;;;39.30;25.80;;;;;;6213716;28;20054;-78
2022/07/19 11:08:35;;;;;;;2.30;0.63;;;39.30;25.20;;;;;;6213375;28;20051;-78
2022/07/19 11:11:37;;;;;;;7.70;0.63;;;39.30;25.30;;;;;;6216272;28;20088;-80
2022/07/19 11:14:44;;;;;;;3.38;0.80;;;39.60;25.10;;;;;;6214010;28;20473;-79
2022/07/19 11:17:56;;;;;;;9.65;1.08;;;39.70;25.20;;;;;;6206784;28;20051;-80
2022/07/19 11:20:59;;;;;;;7.80;1.10;;;39.40;24.80;;;;;;6203682;28;20055;-79
2022/07/19 11:24:01;;;;;;;6.28;1.13;;;39.10;24.90;;;;;;6204547;28;20052;-81
2022/07/19 11:27:03;;;;;;;4.25;0.57;;;39.10;25.10;;;;;;6208106;28;20044;-81
2022/07/19 11:30:07;;;;;;;3.45;0.80;;;39.20;24.80;;;;;;6223709;28;20058;-81
2022/07/19 11:33:10;;;;;;;5.00;0.75;;;39.20;25.30;;;;;;6228694;28;20290;-78
2022/07/19 11:36:15;;;;;;;5.55;0.70;;;39.10;25.40;;;;;;6218502;28;20042;-78
2022/07/19 11:39:17;;;;;;;3.67;0.95;;;39.00;25.30;;;;;;6215604;28;20056;-79
2022/07/19 11:42:28;;;;;;;2.92;0.70;;;39.10;25.30;;;;;;6213963;28;20133;-78
2022/07/19 11:45:30;;;;;;;4.65;0.73;;;39.10;25.30;;;;;;6210308;28;20046;-78
2022/07/19 11:48:33;;;;;;;2.10;0.80;;;39.10;25.30;;;;;;6213210;28;20042;-80
2022/07/19 11:51:36;;;;;;;2.85;0.90;;;39.30;25.50;;;;;;6211842;28;20054;-79
2022/07/19 11:54:38;;;;;;;2.13;0.80;;;39.30;25.10;;;;;;6205157;28;20053;-80
2022/07/19 11:57:40;;;;;;;5.95;1.92;;;39.10;25.40;;;;;;6202711;28;20054;-79
2022/07/19 12:00:43;;;;;;;5.35;1.10;;;39.10;25.10;;;;;;6206043;28;20524;-78
2022/07/19 12:03:55;;;;;;;3.83;0.68;;;39.30;25.10;;;;;;6207229;28;21130;-79
2022/07/19 12:07:00;;;;;;;2.88;0.60;;;39.40;25.40;;;;;;6210259;28;20042;-79
2022/07/19 12:10:02;;;;;;;6.75;0.88;;;39.50;25.10;;;;;;6206067;28;20046;-80
2022/07/19 12:13:05;;;;;;;1.15;0.77;;;39.70;25.20;;;;;;6207619;28;20046;-79
2022/07/19 12:16:09;;;;;;;1.77;1.00;;;39.80;25.20;;;;;;6208514;28;20412;-79
2022/07/19 12:19:14;;;;;;;11.65;0.93;;;40.00;25.00;;;;;;6209165;28;20057;-80
2022/07/19 12:22:29;;;;;;;3.60;1.00;;;40.20;24.80;;;;;;6206489;28;20164;-77
2022/07/19 12:25:38;;;;;;;3.08;1.10;;;40.20;24.70;;;;;;6207475;28;20050;-80
2022/07/19 12:28:40;;;;;;;2.90;0.90;;;40.40;24.50;;;;;;6213554;28;20046;-79
2022/07/19 12:31:44;;;;;;;4.30;0.55;;;40.70;24.40;;;;;;6231707;28;20060;-79
2022/07/19 12:34:49;;;;;;;2.97;0.80;;;41.00;24.30;;;;;;6230947;28;20452;-80
2022/07/19 12:38:03;;;;;;;3.88;0.75;;;41.40;24.50;;;;;;6207690;28;20043;-80
2022/07/19 12:41:07;;;;;;;1.63;0.68;;;41.30;24.50;;;;;;6207882;28;20056;-77
2022/07/19 12:44:09;;;;;;;2.90;0.65;;;41.50;24.60;;;;;;6211876;28;20061;-79
2022/07/19 12:47:10;;;;;;;3.38;1.05;;;41.50;24.30;;;;;;6222292;28;20060;-77
2022/07/19 12:50:22;;;;;;;2.90;1.15;;;41.70;24.20;;;;;;6215479;28;20054;-81
2022/07/19 12:53:24;;;;;;;2.17;0.70;;;41.80;23.90;;;;;;6216150;28;20058;-80
2022/07/19 12:56:25;;;;;;;1.13;0.77;;;41.60;24.20;;;;;;6215004;28;20064;-81
2022/07/19 12:59:42;;;;;;;4.13;0.60;;;41.50;24.40;;;;;;6213798;28;20070;-79
2022/07/19 13:02:45;;;;;;;5.13;1.20;;;41.50;24.30;;;;;;6214592;28;20042;-80
2022/07/19 13:05:48;;;;;;;1.45;0.70;;;41.40;23.90;;;;;;6206545;28;20054;-81
2022/07/19 13:08:50;;;;;;;4.97;1.02;;;41.70;24.20;;;;;;6221554;28;20074;-79
2022/07/19 13:11:51;;;;;;;4.35;0.75;;;41.90;24.20;;;;;;6215335;28;20046;-79
2022/07/19 13:14:53;;;;;;;6.05;1.00;;;42.30;23.90;;;;;;6214000;28;20042;-80
2022/07/19 13:17:55;;;;;;;1.30;0.93;;;41.90;24.00;;;;;;6213642;28;20060;-80
2022/07/19 13:20:58;;;;;;;2.47;0.82;;;41.90;23.90;;;;;;6217202;28;20061;-82
2022/07/19 13:24:00;;;;;;;3.22;0.55;;;41.70;24.10;;;;;;6218662;28;20050;-78
2022/07/19 13:27:01;;;;;;;6.80;1.30;;;41.90;23.90;;;;;;6218215;28;20268;-80
2022/07/19 13:30:04;;;;;;;5.50;1.20;;;41.70;24.10;;;;;;6217038;28;20049;-79
2022/07/19 13:33:05;;;;;;;4.38;0.82;;;41.50;23.80;;;;;;6208769;28;20138;-80
2022/07/19 13:36:09;;;;;;;8.38;1.10;;;41.50;24.10;;;;;;6210633;28;20050;-82
2022/07/19 13:39:11;;;;;;;5.22;1.00;;;41.80;24.00;;;;;;6212894;28;20050;-78
2022/07/19 13:42:14;;;;;;;1.50;0.77;;;41.90;24.10;;;;;;6212307;28;20051;-79
2022/07/19 13:45:15;;;;;;;6.88;0.77;;;41.90;23.60;;;;;;6213246;28;20056;-79
2022/07/19 13:48:17;;;;;;;4.95;0.88;;;41.60;23.70;;;;;;6213191;28;20369;-78
2022/07/19 13:51:20;;;;;;;5.22;1.00;;;41.30;23.90;;;;;;6213755;28;20043;-78
2022/07/19 13:54:22;;;;;;;5.68;1.30;;;41.30;24.30;;;;;;6213437;28;20051;-79
2022/07/19 13:57:24;;;;;;;6.10;1.10;;;41.40;24.20;;;;;;6212251;28;20094;-76
2022/07/19 14:00:26;;;;;;;6.50;1.10;;;41.50;24.20;;;;;;6215422;28;20591;-76
2022/07/19 14:03:27;;;;;;;5.20;0.80;;;41.50;24.20;;;;;;6217670;28;20066;-77
2022/07/19 14:06:31;;;;;;;4.68;0.95;;;41.50;23.60;;;;;;6216029;28;20050;-79
2022/07/19 14:09:33;;;;;;;3.85;1.30;;;41.30;23.70;;;;;;6216004;28;20046;-79
2022/07/19 14:12:35;;;;;;;6.40;1.13;;;41.20;24.00;;;;;;6215120;28;20136;-78
2022/07/19 14:15:37;;;;;;;4.03;1.08;;;41.30;24.20;;;;;;6214217;28;20388;-79
2022/07/19 14:18:38;;;;;;;6.32;1.10;;;41.50;24.40;;;;;;6214667;28;20050;-80
2022/07/19 14:21:42;;;;;;;2.50;0.90;;;41.60;23.50;;;;;;6213711;28;20061;-79
2022/07/19 14:24:43;;;;;;;1.48;0.65;;;41.80;23.70;;;;;;6213724;28;20483;-79
2022/07/19 14:27:45;;;;;;;3.55;1.10;;;41.80;24.60;;;;;;6212581;28;20523;-79
2022/07/19 14:30:47;;;;;;;9.20;2.42;;;41.70;24.00;;;;;;6217331;28;20052;-78
2022/07/19 14:33:49;;;;;;;2.60;0.90;;;41.50;24.30;;;;;;6209106;28;20057;-78
2022/07/19 14:36:52;;;;;;;3.38;0.70;;;41.60;24.50;;;;;;6208928;28;20535;-74
2022/07/19 14:39:54;;;;;;;6.28;1.15;;;41.70;24.30;;;;;;6211283;28;20051;-79
2022/07/19 14:42:56;;;;;;;2.97;0.88;;;41.80;24.00;;;;;;6209784;28;20372;-78
2022/07/19 14:45:57;;;;;;;5.20;1.17;;;41.50;24.00;;;;;;6206398;28;20057;-79
2022/07/19 14:48:59;;;;;;;2.58;1.10;;;41.40;24.40;;;;;;6205494;28;20412;-76
2022/07/19 14:52:03;;;;;;;1.70;1.08;;;41.30;24.20;;;;;;6206984;28;20042;-77
2022/07/19 14:55:06;;;;;;;5.05;1.20;;;41.10;24.30;;;;;;6211556;28;20046;-78
2022/07/19 14:58:08;;;;;;;10.57;1.50;;;41.00;24.40;;;;;;6211727;28;20046;-76
2022/07/19 15:01:10;;;;;;;7.28;1.35;;;41.10;24.10;;;;;;6210251;28;20046;-79
2022/07/19 15:04:11;;;;;;;4.05;1.50;;;41.30;24.10;;;;;;6210876;28;20060;-77
2022/07/19 15:07:15;;;;;;;3.60;0.82;;;41.30;24.10;;;;;;6207272;28;20046;-80
2022/07/19 15:10:17;;;;;;;2.20;1.45;;;41.30;24.10;;;;;;6207880;28;20054;-79
2022/07/19 15:13:18;;;;;;;5.18;1.23;;;41.40;23.90;;;;;;6208738;28;20403;-78
2022/07/19 15:16:20;;;;;;;3.65;0.98;;;41.20;23.80;;;;;;6208330;28;20424;-77
2022/07/19 15:19:23;;;;;;;6.05;1.00;;;41.00;23.70;;;;;;6207266;28;20058;-79
2022/07/19 15:22:26;;;;;;;6.70;1.67;;;40.90;23.70;;;;;;6206709;28;20057;-79
2022/07/19 15:25:28;;;;;;;3.47;1.30;;;40.90;24.10;;;;;;6203047;28;20050;-78
2022/07/19 15:28:29;;;;;;;2.78;1.30;;;40.90;23.80;;;;;;6202456;28;20054;-77
2022/07/19 15:31:31;;;;;;;1.88;1.13;;;40.80;24.20;;;;;;6206363;28;20057;-78
2022/07/19 15:34:33;;;;;;;2.75;1.10;;;40.90;24.10;;;;;;6201218;28;20057;-76
2022/07/19 15:37:36;;;;;;;3.03;1.23;;;40.90;24.00;;;;;;6205523;28;20080;-77
2022/07/19 15:40:38;;;;;;;2.63;1.17;;;40.90;24.10;;;;;;6202114;28;20054;-75
2022/07/19 15:43:40;;;;;;;7.97;1.45;;;40.90;23.80;;;;;;6202266;28;20057;-77
2022/07/19 15:46:42;;;;;;;4.03;1.15;;;41.00;23.80;;;;;;6201954;28;20058;-78
2022/07/19 15:49:43;;;;;;;4.93;1.13;;;41.00;23.90;;;;;;6202828;28;20038;-77
2022/07/19 15:52:46;;;;;;;7.25;0.93;;;40.70;24.00;;;;;;6202649;28;20054;-76